Etusivu
METAR-TAF:

METAR-TAF

Lentoasemat :

Yakutat, Alaska, Yhdysvallat

Leveyspiiri: 59-31N, Pituuspiiri: 139-40W, korkeus merenpinnasta: 11 m

Tämänhetkinen sää

Tämä raportti tehtiin 19 minuuttia sitten, kello 22.53 UTC
Tuuli 4 kn pohjoisesta
Lämpötila 3°C
Kosteus 75%
Ilmanpaine 1005 hPa
Näkyvyys: 16.1 km
Hajonneita pilviä 5000 ft:n korkeudessa
Pilvistä 7000 ft:n korkeudessa

METAR: PAYA 112253Z AUTO 01004KT 10SM BKN050 OVC070 03/M01 A2968 RMK AO2 RAB13E41 SLP050 P0000 T00281006 TSNO

Aika: 14:12 (23:12 UTC)

Sääennuste

Tämä raportti tehtiin 5 tuntia ja 44 minuuttia sitten, kello 17.28 UTC
Ennuste voimassa 11. päivästä klo 18 UTC - 12. päivään klo 18 UTC
Tuuli 5 kn idästä
Näkyvyys: 10 km
Hajonneita pilviä 10000 ft:n korkeudessa
From 12. päivästä klo 0300 UTC
Tuuli 4 kn idästä
Näkyvyys: 10 km
Pilvistä 2500 ft:n korkeudessa
heikkoa sadetta

TAF: PAYA 111728Z 1118/1218 08005KT P6SM BKN100 FM120300 08004KT P6SM -RA OVC025 AMD LTD TO CLD VIS AND WIND

Säähavainnot ja -ennusteet yli 4000 lentoasemalta (METAR- ja TAF-raportit).

Käytössä olevat sääasemat on merkitty karttaan keltaisilla ja punaisilla pisteillä.

Aseta hiiri pisteen päälle nähdäksesi sääaseman nimen.

Klikkaa sitten nähdäksesi säähavainnot ja -ennusteet.

Kartan vaihtaminen: klikkaa mustalla rastilla varustettuja vihreitä pisteitä, niin voit zoomata sisään; viivalla varustettua vihreää pistettä, niin voit zoomata ulos tai vihreitä nuolia, niin pääset viereisille kartoille.


METAR-TAF: